Time;durP1;ratioP1;P1;durP2;ratioP2;P2;SDS_P1;SDS_P2;PMS_P1;PMS_P2;Temp;Humidity;BMP_temperature;BMP_pressure;BME280_temperature;BME280_humidity;BME280_pressure;Samples;Min_cycle;Max_cycle;Signal;HPM_P1;HPM_P2
2023/11/27 00:02:25;;;;;;;50.83;24.23;;;;;;;3.79;100.00;99869.19;10086881;29;20053;-81
2023/11/27 00:07:28;;;;;;;56.30;27.40;;;;;;;3.90;100.00;99859.59;10075942;29;20045;-81
2023/11/27 00:12:31;;;;;;;54.20;26.20;;;;;;;3.43;100.00;99866.00;10070010;29;20053;-80
2023/11/27 00:17:36;;;;;;;62.20;29.48;;;;;;;3.54;100.00;99861.81;10058456;29;20056;-81
2023/11/27 00:22:39;;;;;;;64.82;26.92;;;;;;;3.49;100.00;99859.47;10083154;29;20065;-82
2023/11/27 00:27:42;;;;;;;55.25;26.85;;;;;;;3.34;100.00;99842.63;10050167;29;20049;-81
2023/11/27 00:32:47;;;;;;;51.58;24.98;;;;;;;3.21;100.00;99836.34;10099033;29;20046;-82
2023/11/27 00:37:51;;;;;;;80.28;37.92;;;;;;;3.68;100.00;99836.16;10081460;29;20057;-82
2023/11/27 00:42:54;;;;;;;81.07;39.50;;;;;;;3.77;100.00;99828.56;10073186;29;20052;-82
2023/11/27 00:47:59;;;;;;;76.00;37.47;;;;;;;3.67;100.00;99833.56;10068895;29;20052;-80
2023/11/27 00:53:02;;;;;;;41.85;20.05;;;;;;;2.97;100.00;99825.38;10065076;29;20055;-80
2023/11/27 00:58:06;;;;;;;57.63;28.85;;;;;;;3.00;100.00;99826.06;10068902;29;20083;-81
2023/11/27 01:03:11;;;;;;;69.88;31.10;;;;;;;3.22;100.00;99809.72;10064368;29;20082;-82
2023/11/27 01:08:14;;;;;;;64.82;32.40;;;;;;;3.40;100.00;99802.47;10071554;29;20064;-80
2023/11/27 01:13:17;;;;;;;69.75;31.02;;;;;;;3.37;100.00;99796.47;10050469;29;20082;-81
2023/11/27 01:18:22;;;;;;;59.92;29.45;;;;;;;3.42;100.00;99797.03;10049557;29;20073;-82
2023/11/27 01:23:25;;;;;;;57.45;27.88;;;;;;;3.52;100.00;99787.56;10058312;29;20064;-78
2023/11/27 01:28:28;;;;;;;59.00;26.05;;;;;;;3.59;100.00;99780.91;10050095;29;20051;-78
2023/11/27 01:33:33;;;;;;;50.83;23.08;;;;;;;3.34;100.00;99775.41;10047567;29;20049;-80
2023/11/27 01:38:36;;;;;;;39.45;22.20;;;;;;;3.20;100.00;99771.78;10041725;29;20053;-80
2023/11/27 01:43:40;;;;;;;42.35;14.57;;;;;;;3.34;100.00;99764.78;10042801;29;20049;-79
2023/11/27 01:48:45;;;;;;;37.55;19.48;;;;;;;3.34;100.00;99762.97;10062224;29;20084;-79
2023/11/27 01:53:50;;;;;;;42.75;19.90;;;;;;;3.56;100.00;99751.06;10039343;29;20052;-80
2023/11/27 01:58:55;;;;;;;39.40;17.48;;;;;;;3.42;100.00;99744.78;10061789;29;20049;-79
2023/11/27 02:04:00;;;;;;;28.90;15.50;;;;;;;3.40;100.00;99751.13;10033261;29;20663;-79
2023/11/27 02:09:03;;;;;;;26.13;13.23;;;;;;;3.43;100.00;99735.03;10055230;29;20167;-80
2023/11/27 02:14:06;;;;;;;28.05;14.52;;;;;;;3.23;100.00;99728.28;10063140;29;20063;-78
2023/11/27 02:19:10;;;;;;;35.45;14.60;;;;;;;3.44;100.00;99731.44;10039272;29;20053;-79
2023/11/27 02:24:15;;;;;;;32.05;14.45;;;;;;;3.47;100.00;99726.78;10029867;29;20137;-79
2023/11/27 02:29:18;;;;;;;31.38;14.43;;;;;;;3.31;100.00;99723.34;10043245;29;20056;-78
2023/11/27 02:34:21;;;;;;;35.53;14.95;;;;;;;3.56;100.00;99717.38;10033416;29;20172;-79
2023/11/27 02:39:26;;;;;;;45.42;15.98;;;;;;;3.40;100.00;99725.47;10046683;29;20053;-78
2023/11/27 02:44:29;;;;;;;34.03;15.98;;;;;;;3.59;100.00;99701.25;10038735;29;20140;-79
2023/11/27 02:49:32;;;;;;;19.23;8.18;;;;;;;2.99;100.00;99698.75;10039531;29;20060;-78
2023/11/27 02:54:36;;;;;;;31.25;16.75;;;;;;;3.04;100.00;99678.13;10051409;29;20048;-78
2023/11/27 02:59:39;;;;;;;15.20;8.57;;;;;;;3.11;100.00;99670.66;10044662;29;20041;-79
2023/11/27 03:04:42;;;;;;;25.58;13.02;;;;;;;3.00;100.00;99666.00;10034973;29;20385;-78
2023/11/27 03:09:48;;;;;;;23.35;13.15;;;;;;;3.05;100.00;99648.00;10036333;29;21131;-80
2023/11/27 03:14:51;;;;;;;31.55;15.20;;;;;;;3.06;100.00;99639.09;10039908;29;20057;-79
2023/11/27 03:19:54;;;;;;;25.08;13.90;;;;;;;3.20;100.00;99632.91;10049863;29;20057;-78
2023/11/27 03:24:59;;;;;;;20.90;10.80;;;;;;;3.13;100.00;99627.16;10031199;29;20049;-78
2023/11/27 03:30:02;;;;;;;17.98;10.77;;;;;;;3.02;100.00;99619.84;10034337;29;20655;-78
2023/11/27 03:35:09;;;;;;;23.60;12.50;;;;;;;3.00;100.00;99600.50;10054423;29;20067;-78
2023/11/27 03:40:14;;;;;;;17.35;11.82;;;;;;;3.01;100.00;99593.41;10061145;29;20619;-78
2023/11/27 03:45:17;;;;;;;19.02;11.43;;;;;;;2.92;100.00;99586.88;10049061;29;20052;-78
2023/11/27 03:50:20;;;;;;;21.75;12.45;;;;;;;3.25;100.00;99575.94;10025071;29;20057;-80
2023/11/27 03:55:25;;;;;;;17.38;10.68;;;;;;;3.21;100.00;99573.56;10031965;29;20053;-78
2023/11/27 04:00:28;;;;;;;17.63;10.70;;;;;;;3.24;100.00;99573.41;10037834;29;20057;-80
2023/11/27 04:05:31;;;;;;;16.98;10.05;;;;;;;2.65;100.00;99580.63;10053265;29;20064;-79
2023/11/27 04:10:36;;;;;;;18.85;8.45;;;;;;;2.81;100.00;99578.72;10036523;29;20056;-78
2023/11/27 04:15:39;;;;;;;20.92;9.90;;;;;;;2.47;100.00;99574.59;10053596;29;20072;-78
2023/11/27 04:20:43;;;;;;;18.40;9.82;;;;;;;2.90;100.00;99562.22;10072021;29;20053;-78
2023/11/27 04:25:48;;;;;;;15.70;9.82;;;;;;;2.76;100.00;99554.28;10062724;29;20058;-79
2023/11/27 04:30:51;;;;;;;17.05;10.48;;;;;;;2.68;100.00;99553.91;10043293;29;20060;-79
2023/11/27 04:35:54;;;;;;;13.00;8.45;;;;;;;2.71;100.00;99551.91;10054411;29;20053;-79
2023/11/27 04:40:58;;;;;;;13.02;7.85;;;;;;;2.42;100.00;99544.88;10024618;29;20072;-79
2023/11/27 04:46:01;;;;;;;15.27;10.15;;;;;;;2.38;100.00;99539.72;10046746;29;20421;-78
2023/11/27 04:51:05;;;;;;;22.67;12.07;;;;;;;2.14;100.00;99530.63;10042820;29;20057;-79
2023/11/27 04:56:10;;;;;;;10.60;7.10;;;;;;;1.88;100.00;99551.53;10059120;29;20064;-79
2023/11/27 05:01:13;;;;;;;17.50;11.63;;;;;;;1.92;100.00;99529.25;10070112;29;20052;-82
2023/11/27 05:06:16;;;;;;;16.67;10.77;;;;;;;1.99;100.00;99529.72;10048647;29;20076;-79
2023/11/27 05:11:21;;;;;;;13.13;7.82;;;;;;;2.15;100.00;99516.44;10065783;29;20068;-80
2023/11/27 05:16:24;;;;;;;12.93;9.73;;;;;;;2.08;100.00;99510.63;10065334;29;20061;-81
2023/11/27 05:21:27;;;;;;;13.00;8.70;;;;;;;2.03;100.00;99510.06;10067371;29;20065;-80
2023/11/27 05:26:31;;;;;;;10.57;7.47;;;;;;;2.01;100.00;99506.66;10070849;29;20046;-80
2023/11/27 05:31:34;;;;;;;17.30;9.93;;;;;;;2.15;100.00;99495.22;10060683;29;20065;-80
2023/11/27 05:36:37;;;;;;;11.35;8.02;;;;;;;2.07;100.00;99501.00;10068409;29;20053;-83
2023/11/27 05:41:42;;;;;;;14.45;9.73;;;;;;;2.02;100.00;99483.66;10069716;29;20069;-80
2023/11/27 05:46:45;;;;;;;12.40;7.85;;;;;;;2.10;100.00;99484.91;10070006;29;21157;-80
2023/11/27 05:51:48;;;;;;;18.55;10.07;;;;;;;2.17;100.00;99472.16;10076114;29;20041;-80
2023/11/27 05:56:54;;;;;;;16.00;11.65;;;;;;;2.08;100.00;99462.09;10054726;29;20081;-82
2023/11/27 06:01:58;;;;;;;20.20;11.55;;;;;;;2.19;100.00;99449.03;10056742;29;21263;-81
2023/11/27 06:07:01;;;;;;;15.77;10.73;;;;;;;2.15;100.00;99450.19;10062053;29;20057;-82
2023/11/27 06:12:06;;;;;;;18.30;11.20;;;;;;;2.16;100.00;99443.94;10058518;29;20107;-78
2023/11/27 06:17:09;;;;;;;18.30;13.20;;;;;;;2.22;100.00;99432.94;10068140;29;20053;-78
2023/11/27 06:22:12;;;;;;;20.52;13.10;;;;;;;2.21;100.00;99425.13;10059487;29;20054;-78
2023/11/27 06:27:16;;;;;;;18.17;12.07;;;;;;;2.25;100.00;99419.53;10041123;29;20061;-79
2023/11/27 06:32:21;;;;;;;19.77;13.43;;;;;;;2.26;100.00;99412.44;10077159;29;20056;-81
2023/11/27 06:37:24;;;;;;;19.33;12.65;;;;;;;2.32;100.00;99406.75;10056371;29;20083;-80
2023/11/27 06:42:30;;;;;;;19.83;11.95;;;;;;;2.36;100.00;99397.69;10075627;29;20058;-81
2023/11/27 06:47:33;;;;;;;20.17;12.75;;;;;;;2.27;100.00;99379.69;10073092;29;20064;-80
2023/11/27 06:52:36;;;;;;;22.10;13.32;;;;;;;2.29;100.00;99381.28;10059691;29;20049;-81
2023/11/27 06:57:41;;;;;;;22.45;13.85;;;;;;;2.33;100.00;99372.22;10075248;29;20670;-80
2023/11/27 07:02:44;;;;;;;24.33;14.05;;;;;;;2.37;100.00;99356.97;10077134;29;20057;-80
2023/11/27 07:07:48;;;;;;;24.15;13.95;;;;;;;2.39;100.00;99347.13;10066387;29;20157;-80
2023/11/27 07:12:52;;;;;;;28.25;14.15;;;;;;;2.49;100.00;99339.41;10068436;29;20065;-81
2023/11/27 07:17:57;;;;;;;7.95;4.20;;;;;;;2.45;100.00;99335.28;10069568;29;20053;-81
2023/11/27 07:23:18;;;;;;;40.38;20.65;;;;;;;3.12;100.00;99322.06;10064572;29;20076;-79
2023/11/27 07:28:23;;;;;;;47.00;22.25;;;;;;;3.46;100.00;99313.53;10068484;29;20073;-80
2023/11/27 07:33:26;;;;;;;28.70;15.80;;;;;;;3.24;100.00;99303.53;10075484;29;20072;-81
2023/11/27 07:38:29;;;;;;;13.23;9.38;;;;;;;3.38;100.00;99289.31;10065607;29;20060;-80
2023/11/27 07:43:34;;;;;;;13.50;8.75;;;;;;;3.67;100.00;99286.44;10077522;29;20072;-81
2023/11/27 07:48:38;;;;;;;17.20;7.90;;;;;;;3.17;100.00;99277.50;10073750;29;20053;-80
2023/11/27 07:53:41;;;;;;;11.68;7.15;;;;;;;2.85;100.00;99272.53;10063613;29;20059;-78
2023/11/27 07:58:45;;;;;;;15.35;8.70;;;;;;;2.74;100.00;99265.34;10064449;29;20168;-79
2023/11/27 08:03:48;;;;;;;16.00;8.65;;;;;;;2.77;100.00;99265.13;10081076;29;20056;-80
2023/11/27 08:08:54;;;;;;;14.85;8.68;;;;;;;2.57;100.00;99257.63;10080564;29;20057;-79
2023/11/27 08:13:58;;;;;;;19.88;9.88;;;;;;;2.52;100.00;99251.72;10061215;29;20049;-78
2023/11/27 08:19:01;;;;;;;15.43;9.68;;;;;;;2.63;100.00;99233.34;10051169;29;20052;-79
2023/11/27 08:24:06;;;;;;;18.58;10.88;;;;;;;2.68;100.00;99223.28;10057564;29;20060;-79
2023/11/27 08:29:15;;;;;;;25.92;12.15;;;;;;;2.74;100.00;99219.38;10049204;29;20072;-79
2023/11/27 08:34:19;;;;;;;14.48;10.23;;;;;;;2.86;100.00;99212.41;10062830;29;20052;-79
2023/11/27 08:39:24;;;;;;;18.50;10.52;;;;;;;2.80;100.00;99203.06;10065230;29;20055;-78
2023/11/27 08:44:29;;;;;;;14.57;10.93;;;;;;;2.72;100.00;99200.09;10057580;29;20056;-79
2023/11/27 08:49:32;;;;;;;18.75;10.90;;;;;;;2.66;100.00;99180.13;10056073;29;20041;-78
2023/11/27 08:54:35;;;;;;;15.15;10.30;;;;;;;2.65;100.00;99170.47;10064733;29;20064;-79
2023/11/27 08:59:39;;;;;;;15.40;10.77;;;;;;;2.65;100.00;99173.13;10039695;29;20057;-79
2023/11/27 09:04:42;;;;;;;14.02;10.45;;;;;;;2.67;100.00;99160.63;10041004;29;20053;-78
2023/11/27 09:09:45;;;;;;;18.67;10.68;;;;;;;2.71;100.00;99148.81;10061557;29;20641;-79
2023/11/27 09:14:51;;;;;;;22.08;12.48;;;;;;;2.70;100.00;99133.03;10071162;29;20045;-79
2023/11/27 09:19:55;;;;;;;18.13;11.57;;;;;;;2.47;100.00;99132.78;10068065;29;20187;-78
2023/11/27 09:24:58;;;;;;;19.67;12.65;;;;;;;2.62;100.00;99130.91;10067178;29;20053;-78
2023/11/27 09:30:03;;;;;;;22.30;13.98;;;;;;;2.58;100.00;99110.88;10061192;29;21205;-78
2023/11/27 09:35:08;;;;;;;22.00;12.25;;;;;;;2.53;100.00;99099.69;10063253;29;20173;-79
2023/11/27 09:40:13;;;;;;;22.50;13.73;;;;;;;2.55;100.00;99095.16;10061209;29;20067;-79
2023/11/27 09:45:18;;;;;;;23.17;14.00;;;;;;;2.64;100.00;99094.53;10060732;29;20065;-79
2023/11/27 09:50:22;;;;;;;19.30;11.82;;;;;;;2.54;100.00;99096.13;10030124;29;20057;-78
2023/11/27 09:55:27;;;;;;;19.83;11.85;;;;;;;2.59;100.00;99091.34;10036445;29;20054;-79
2023/11/27 10:00:33;;;;;;;18.67;10.70;;;;;;;2.51;100.00;99086.53;10053675;29;20056;-79
2023/11/27 10:05:37;;;;;;;15.30;8.63;;;;;;;2.43;100.00;99077.41;10032867;29;20514;-78
2023/11/27 10:10:44;;;;;;;12.10;7.75;;;;;;;2.30;100.00;99053.53;10042614;29;20057;-79
2023/11/27 10:15:48;;;;;;;12.90;5.68;;;;;;;2.02;100.00;99046.63;10043034;29;20051;-79
2023/11/27 10:20:52;;;;;;;10.85;6.05;;;;;;;2.09;100.00;99035.50;10052034;29;20057;-78
2023/11/27 10:25:59;;;;;;;9.68;7.05;;;;;;;1.93;100.00;99033.03;10052569;29;20069;-78
2023/11/27 10:31:04;;;;;;;9.88;6.18;;;;;;;1.85;100.00;99026.56;10047928;29;20064;-78
2023/11/27 10:36:09;;;;;;;8.65;5.72;;;;;;;1.87;100.00;99009.63;10036333;29;21192;-78
2023/11/27 10:41:14;;;;;;;10.68;6.10;;;;;;;1.64;100.00;98995.25;10037333;29;20406;-79
2023/11/27 10:46:18;;;;;;;12.07;6.70;;;;;;;1.79;100.00;98977.50;10030195;29;20059;-80
2023/11/27 10:51:23;;;;;;;16.50;7.25;;;;;;;1.47;100.00;98969.91;10040585;29;20045;-78
2023/11/27 10:56:30;;;;;;;10.55;6.93;;;;;;;1.24;100.00;98960.84;10028848;29;20060;-79
2023/11/27 11:01:39;;;;;;;10.80;7.72;;;;;;;1.21;100.00;98942.53;10037842;29;20053;-78
2023/11/27 11:06:46;;;;;;;11.80;7.88;;;;;;;1.09;100.00;98935.38;10037139;29;20051;-78
2023/11/27 11:11:50;;;;;;;15.73;9.15;;;;;;;1.18;100.00;98915.41;10039410;29;20144;-79
2023/11/27 11:17:07;;;;;;;19.42;10.30;;;;;;;1.17;100.00;98900.50;10050478;29;20076;-79
2023/11/27 11:22:23;;;;;;;17.50;11.68;;;;;;;1.18;100.00;98886.31;10048142;29;20041;-80
2023/11/27 11:27:35;;;;;;;19.27;11.30;;;;;;;1.06;100.00;98880.03;10046962;29;20057;-79
2023/11/27 11:32:40;;;;;;;22.92;11.90;;;;;;;0.89;100.00;98869.72;10031510;29;20584;-80
2023/11/27 11:37:48;;;;;;;23.05;12.35;;;;;;;1.03;100.00;98857.28;10050381;29;20060;-80
2023/11/27 11:42:52;;;;;;;21.88;11.07;;;;;;;0.79;100.00;98850.97;10028797;29;20091;-79
2023/11/27 11:47:59;;;;;;;16.08;9.23;;;;;;;0.84;100.00;98841.78;10037047;29;20053;-78
2023/11/27 11:53:26;;;;;;;18.73;10.98;;;;;;;1.06;100.00;98833.28;10032645;29;20059;-80
2023/11/27 11:58:29;;;;;;;19.10;10.93;;;;;;;0.78;100.00;98822.84;10026933;29;20054;-80
2023/11/27 12:03:35;;;;;;;16.75;10.55;;;;;;;0.70;100.00;98815.41;10053297;29;20164;-79
2023/11/27 12:08:44;;;;;;;14.18;10.40;;;;;;;0.38;100.00;98796.34;10044750;29;20077;-80
2023/11/27 12:13:47;;;;;;;18.48;11.38;;;;;;;0.54;100.00;98791.75;10023886;29;20584;-77
2023/11/27 12:18:54;;;;;;;19.75;9.88;;;;;;;0.58;100.00;98780.06;10038386;29;20053;-78
2023/11/27 12:23:58;;;;;;;15.82;10.18;;;;;;;0.44;100.00;98776.59;10037033;29;20049;-79
2023/11/27 12:29:01;;;;;;;18.38;10.38;;;;;;;0.36;100.00;98771.84;10054215;29;20056;-80
2023/11/27 12:34:05;;;;;;;16.02;11.30;;;;;;;0.37;100.00;98755.03;10049569;29;20619;-80
2023/11/27 12:39:10;;;;;;;16.58;11.32;;;;;;;0.34;100.00;98760.53;10024683;29;20115;-79
2023/11/27 12:44:16;;;;;;;19.88;12.40;;;;;;;0.25;100.00;98764.59;10045963;29;20049;-80
2023/11/27 12:49:22;;;;;;;20.98;12.10;;;;;;;0.26;100.00;98758.38;10043544;29;20069;-80
2023/11/27 12:54:31;;;;;;;18.23;10.98;;;;;;;0.24;100.00;98756.78;10051300;29;20049;-78
2023/11/27 12:59:39;;;;;;;15.80;10.60;;;;;;;0.20;100.00;98739.44;10044902;29;20525;-80
2023/11/27 13:04:44;;;;;;;18.73;12.43;;;;;;;-0.06;100.00;98724.31;10046432;29;20635;-79
2023/11/27 13:09:47;;;;;;;20.98;13.13;;;;;;;0.05;100.00;98720.97;10054691;29;20128;-79
2023/11/27 13:14:50;;;;;;;19.88;13.68;;;;;;;0.14;100.00;98712.47;10047713;29;20053;-79
2023/11/27 13:19:54;;;;;;;21.15;11.30;;;;;;;0.09;100.00;98705.81;10048268;29;20067;-79
2023/11/27 13:24:59;;;;;;;21.65;12.65;;;;;;;0.02;100.00;98686.84;10041527;29;20045;-78
2023/11/27 13:30:02;;;;;;;18.83;12.45;;;;;;;0.05;100.00;98675.25;10021917;29;20488;-79
2023/11/27 13:35:08;;;;;;;33.28;18.13;;;;;;;0.05;100.00;98660.25;10038415;29;20049;-79
2023/11/27 13:40:12;;;;;;;19.98;12.43;;;;;;;0.07;100.00;98657.53;10043362;29;20524;-79
2023/11/27 13:45:16;;;;;;;19.95;11.52;;;;;;;-0.08;100.00;98646.19;10049735;29;20049;-79
2023/11/27 13:50:21;;;;;;;19.25;12.82;;;;;;;0.08;100.00;98630.16;10040493;29;20057;-79
2023/11/27 13:55:23;;;;;;;20.15;12.35;;;;;;;0.03;100.00;98617.28;10041741;29;20059;-79
2023/11/27 14:00:27;;;;;;;19.60;12.63;;;;;;;0.06;100.00;98611.81;10050958;29;20068;-78
2023/11/27 14:05:37;;;;;;;22.80;13.52;;;;;;;-0.06;100.00;98605.50;10047048;29;20049;-78
2023/11/27 14:16:13;;;;;;;19.67;13.15;;;;;;;-0.10;100.00;98590.00;10430731;27;20953;-77
2023/11/27 14:27:20;;;;;;;23.10;13.70;;;;;;;-0.16;100.00;98574.56;10388099;28;20049;-77
2023/11/27 14:32:24;;;;;;;24.95;14.70;;;;;;;0.01;100.00;98562.91;10440376;28;20214;-77
2023/11/27 14:37:30;;;;;;;22.45;13.38;;;;;;;0.06;100.00;98558.16;10474424;28;20052;-77
2023/11/27 14:42:33;;;;;;;22.63;12.85;;;;;;;0.04;100.00;98550.34;10452409;28;20059;-77
2023/11/27 14:47:37;;;;;;;18.05;11.50;;;;;;;-0.07;100.00;98539.66;10438210;28;20102;-78
2023/11/27 14:52:41;;;;;;;19.77;12.38;;;;;;;0.00;100.00;98546.22;10430243;28;20423;-77
2023/11/27 14:57:46;;;;;;;23.27;12.98;;;;;;;-0.20;100.00;98534.31;10433171;28;20041;-77
2023/11/27 15:02:55;;;;;;;20.60;11.30;;;;;;;-0.06;100.00;98530.78;10436313;28;20045;-77
2023/11/27 15:07:59;;;;;;;18.45;11.68;;;;;;;-0.11;100.00;98528.47;10428309;28;20052;-77
2023/11/27 15:13:02;;;;;;;20.90;12.00;;;;;;;-0.06;100.00;98522.84;10436569;28;20056;-78
2023/11/27 15:18:07;;;;;;;17.77;11.60;;;;;;;-0.03;100.00;98522.66;10436668;28;20041;-78
2023/11/27 15:23:10;;;;;;;17.60;11.02;;;;;;;-0.03;100.00;98517.38;10428633;28;20115;-79
2023/11/27 15:28:14;;;;;;;16.15;11.32;;;;;;;-0.06;100.00;98509.66;10403991;28;21208;-79
2023/11/27 15:33:19;;;;;;;19.63;11.48;;;;;;;0.00;100.00;98509.28;10397122;28;20048;-79
2023/11/27 15:38:24;;;;;;;17.08;10.48;;;;;;;0.00;100.00;98498.72;10413145;28;20059;-78
2023/11/27 15:43:28;;;;;;;18.67;10.77;;;;;;;-0.02;100.00;98486.56;10433160;28;20041;-77
2023/11/27 15:48:32;;;;;;;24.25;12.80;;;;;;;-0.01;100.00;98488.25;10445619;28;20073;-78
2023/11/27 15:53:35;;;;;;;21.02;11.15;;;;;;;-0.04;100.00;98493.72;10410545;28;21237;-78
2023/11/27 15:58:39;;;;;;;17.35;10.70;;;;;;;0.03;100.00;98487.06;10422216;28;20067;-77
2023/11/27 16:03:43;;;;;;;18.08;11.10;;;;;;;-0.13;100.00;98482.00;10410796;28;20073;-78
2023/11/27 16:08:46;;;;;;;15.38;9.40;;;;;;;0.00;100.00;98485.50;10391897;28;20131;-79
2023/11/27 16:13:50;;;;;;;14.82;9.70;;;;;;;-0.03;100.00;98487.50;10416403;28;20113;-78
2023/11/27 16:19:01;;;;;;;14.85;9.20;;;;;;;0.04;100.00;98481.69;10412987;28;20046;-78
2023/11/27 16:24:08;;;;;;;13.65;9.07;;;;;;;-0.05;100.00;98477.06;10384797;28;20049;-79
2023/11/27 16:29:11;;;;;;;12.70;8.95;;;;;;;-0.12;100.00;98475.75;10411878;28;20053;-77
2023/11/27 16:34:16;;;;;;;11.32;8.88;;;;;;;-0.08;100.00;98462.28;10410755;28;20055;-78
2023/11/27 16:39:20;;;;;;;12.73;7.68;;;;;;;-0.03;100.00;98466.38;10415665;28;20182;-78
2023/11/27 16:44:23;;;;;;;10.48;8.35;;;;;;;-0.06;100.00;98448.94;10405312;28;21130;-77
2023/11/27 16:49:27;;;;;;;13.30;9.13;;;;;;;-0.08;100.00;98446.44;10427889;28;20475;-77
2023/11/27 16:54:32;;;;;;;13.48;8.73;;;;;;;-0.07;100.00;98442.84;10409572;28;20049;-77
2023/11/27 16:59:35;;;;;;;14.18;9.38;;;;;;;-0.13;100.00;98435.34;10411432;28;20045;-78
2023/11/27 17:04:39;;;;;;;13.13;9.48;;;;;;;-0.06;100.00;98435.75;10415785;28;20052;-78
2023/11/27 17:09:42;;;;;;;13.35;9.07;;;;;;;-0.03;100.00;98424.97;10405993;28;20048;-79
2023/11/27 17:14:46;;;;;;;16.42;9.90;;;;;;;-0.20;100.00;98418.22;10402278;28;20055;-78
2023/11/27 17:19:50;;;;;;;16.95;11.02;;;;;;;-0.10;100.00;98416.66;10403396;28;20133;-78
2023/11/27 17:24:53;;;;;;;18.58;12.07;;;;;;;-0.01;100.00;98403.78;10407729;28;20103;-77
2023/11/27 17:29:56;;;;;;;14.30;9.20;;;;;;;-0.04;100.00;98396.91;10412331;28;20087;-78
2023/11/27 17:35:08;;;;;;;10.95;7.90;;;;;;;0.01;100.00;98405.34;10408167;28;20533;-77
2023/11/27 17:40:13;;;;;;;11.32;8.35;;;;;;;0.05;100.00;98392.78;10411597;28;20079;-78
2023/11/27 17:45:16;;;;;;;11.73;8.52;;;;;;;0.05;100.00;98398.06;10411440;28;20154;-78
2023/11/27 17:50:22;;;;;;;13.35;8.90;;;;;;;0.13;100.00;98396.56;10391264;28;20053;-78
2023/11/27 17:55:27;;;;;;;16.85;10.20;;;;;;;0.20;100.00;98388.25;10394704;28;20630;-78
2023/11/27 18:00:42;;;;;;;20.83;10.13;;;;;;;0.22;100.00;98376.63;10402940;28;20071;-80
2023/11/27 18:05:46;;;;;;;12.02;8.25;;;;;;;0.23;100.00;98374.84;10409940;28;21129;-79
2023/11/27 18:10:49;;;;;;;12.52;8.85;;;;;;;0.26;100.00;98385.16;10393572;28;20698;-79
2023/11/27 18:15:52;;;;;;;13.18;7.85;;;;;;;0.31;100.00;98383.06;10395391;28;20192;-79
2023/11/27 18:20:57;;;;;;;12.48;8.50;;;;;;;0.34;100.00;98382.84;10387012;28;20052;-78
2023/11/27 18:26:04;;;;;;;13.70;8.13;;;;;;;0.29;100.00;98363.81;10374540;28;20602;-78
2023/11/27 18:31:07;;;;;;;10.70;7.72;;;;;;;0.34;100.00;98369.63;10385525;28;20052;-78
2023/11/27 18:36:13;;;;;;;12.60;7.70;;;;;;;0.31;100.00;98368.06;10391332;28;20053;-78
2023/11/27 18:41:17;;;;;;;15.30;8.13;;;;;;;0.29;100.00;98364.66;10403290;28;20083;-78
2023/11/27 18:46:22;;;;;;;10.65;7.85;;;;;;;0.26;100.00;98361.41;10383213;28;20116;-78
2023/11/27 18:51:26;;;;;;;12.32;7.93;;;;;;;0.23;100.00;98370.38;10400183;28;20059;-79
2023/11/27 18:56:29;;;;;;;15.73;8.80;;;;;;;0.22;100.00;98368.72;10398942;28;20049;-79
2023/11/27 19:01:32;;;;;;;17.50;10.57;;;;;;;0.19;100.00;98365.41;10404989;28;20057;-79
2023/11/27 19:06:37;;;;;;;14.05;8.57;;;;;;;0.13;100.00;98366.69;10404357;28;20104;-79
2023/11/27 19:11:40;;;;;;;12.68;8.80;;;;;;;0.10;100.00;98359.84;10402248;28;20045;-80
2023/11/27 19:16:44;;;;;;;12.93;9.10;;;;;;;0.09;100.00;98368.72;10379500;28;20053;-79
2023/11/27 19:21:50;;;;;;;12.98;8.23;;;;;;;0.02;100.00;98363.97;10413839;28;20048;-79
2023/11/27 19:26:53;;;;;;;12.52;7.82;;;;;;;0.03;100.00;98355.94;10416809;28;20060;-77
2023/11/27 19:31:56;;;;;;;16.05;9.93;;;;;;;0.04;100.00;98355.00;10416796;28;20041;-77
2023/11/27 19:37:03;;;;;;;15.20;10.27;;;;;;;0.06;100.00;98350.47;10423310;28;20049;-77
2023/11/27 19:42:08;;;;;;;14.68;8.82;;;;;;;0.11;100.00;98350.97;10415127;28;20048;-77
2023/11/27 19:47:13;;;;;;;11.52;7.97;;;;;;;0.13;100.00;98354.34;10420790;28;20540;-79
2023/11/27 19:52:18;;;;;;;15.60;8.82;;;;;;;0.13;100.00;98354.34;10436580;28;20048;-79
2023/11/27 19:57:21;;;;;;;14.57;9.95;;;;;;;0.20;100.00;98346.84;10419506;28;20507;-79
2023/11/27 20:02:24;;;;;;;13.88;8.18;;;;;;;0.22;100.00;98352.00;10404422;28;20423;-78
2023/11/27 20:07:29;;;;;;;10.73;8.35;;;;;;;0.20;100.00;98346.84;10393538;28;20069;-79
2023/11/27 20:12:32;;;;;;;13.18;9.27;;;;;;;0.24;100.00;98347.47;10414070;28;20053;-79
2023/11/27 20:17:35;;;;;;;9.65;7.07;;;;;;;0.22;100.00;98344.94;10405362;28;20053;-78
2023/11/27 20:22:40;;;;;;;13.15;8.13;;;;;;;0.17;100.00;98349.69;10419503;28;20052;-78
2023/11/27 20:27:44;;;;;;;8.77;7.20;;;;;;;0.21;100.00;98347.69;10379797;28;20626;-78
2023/11/27 20:32:47;;;;;;;8.48;5.95;;;;;;;0.20;100.00;98349.47;10393612;28;20420;-77
2023/11/27 20:37:54;;;;;;;12.55;7.05;;;;;;;0.20;100.00;98348.66;10379270;28;20187;-77
2023/11/27 20:42:59;;;;;;;7.13;6.22;;;;;;;0.21;100.00;98350.31;10368273;28;20057;-77
2023/11/27 20:48:03;;;;;;;7.95;6.35;;;;;;;0.16;100.00;98346.22;10381849;28;20176;-78
2023/11/27 20:53:07;;;;;;;10.00;6.82;;;;;;;0.19;100.00;98354.84;10371644;28;20049;-78
2023/11/27 20:58:12;;;;;;;10.88;7.60;;;;;;;0.19;100.00;98353.06;10375983;28;20483;-78
2023/11/27 21:03:19;;;;;;;8.02;6.00;;;;;;;0.14;100.00;98350.75;10368192;28;20053;-79
2023/11/27 21:08:24;;;;;;;8.35;5.88;;;;;;;0.19;100.00;98342.50;10384223;28;20064;-77
2023/11/27 21:13:27;;;;;;;5.85;4.97;;;;;;;0.18;100.00;98343.47;10381516;28;20154;-79
2023/11/27 21:18:30;;;;;;;6.95;5.78;;;;;;;0.21;100.00;98358.25;10380132;28;20139;-76
2023/11/27 21:23:35;;;;;;;10.07;6.85;;;;;;;0.19;100.00;98355.69;10374446;28;20061;-77
2023/11/27 21:28:41;;;;;;;10.20;7.85;;;;;;;0.19;100.00;98350.41;10377292;28;20053;-78
2023/11/27 21:33:45;;;;;;;10.50;7.68;;;;;;;0.16;100.00;98362.06;10370579;28;20049;-78
2023/11/27 21:38:50;;;;;;;10.50;7.82;;;;;;;0.13;100.00;98353.50;10370589;28;20060;-78
2023/11/27 21:43:53;;;;;;;11.95;8.13;;;;;;;0.07;100.00;98357.41;10360086;28;20046;-78
2023/11/27 21:48:56;;;;;;;10.18;7.80;;;;;;;0.12;100.00;98360.56;10367443;28;20061;-78
2023/11/27 21:54:01;;;;;;;9.27;7.32;;;;;;;0.11;100.00;98364.19;10355561;28;20054;-79
2023/11/27 21:59:04;;;;;;;9.50;6.72;;;;;;;0.00;100.00;98369.38;10365422;28;20045;-78
2023/11/27 22:04:07;;;;;;;8.80;6.03;;;;;;;0.06;100.00;98366.28;10363826;28;20067;-78
2023/11/27 22:09:12;;;;;;;6.82;5.60;;;;;;;0.05;100.00;98366.38;10358919;28;20100;-79
2023/11/27 22:14:15;;;;;;;6.90;5.80;;;;;;;0.08;100.00;98380.25;10358464;28;20069;-78
2023/11/27 22:19:18;;;;;;;8.82;5.97;;;;;;;0.08;100.00;98374.97;10365199;28;20080;-78
2023/11/27 22:24:22;;;;;;;6.18;4.68;;;;;;;0.00;100.00;98377.28;10357476;28;20053;-78
2023/11/27 22:29:26;;;;;;;6.30;5.07;;;;;;;-0.03;100.00;98388.03;10359043;28;20053;-79
2023/11/27 22:34:31;;;;;;;6.55;4.28;;;;;;;0.03;100.00;98395.53;10364602;28;20057;-78
2023/11/27 22:39:36;;;;;;;5.25;4.43;;;;;;;0.02;100.00;98388.56;10364836;28;20050;-79
2023/11/27 22:44:39;;;;;;;5.97;4.28;;;;;;;0.00;100.00;98390.47;10362519;28;20128;-78
2023/11/27 22:49:42;;;;;;;5.05;4.13;;;;;;;-0.03;100.00;98397.75;10370135;28;20425;-78
2023/11/27 22:54:46;;;;;;;4.93;3.70;;;;;;;-0.01;100.00;98409.88;10375022;28;20535;-78
2023/11/27 22:59:49;;;;;;;4.85;3.78;;;;;;;0.01;100.00;98402.72;10370861;28;20049;-79
2023/11/27 23:04:52;;;;;;;5.28;4.63;;;;;;;0.02;100.00;98420.25;10379100;28;20049;-79
2023/11/27 23:09:57;;;;;;;4.32;3.92;;;;;;;0.03;100.00;98435.16;10375822;28;20060;-78
2023/11/27 23:15:00;;;;;;;4.38;3.90;;;;;;;0.06;100.00;98424.38;10372970;28;20053;-78
2023/11/27 23:20:04;;;;;;;4.28;3.88;;;;;;;0.04;100.00;98433.34;10402173;28;20046;-78